Time;durP1;ratioP1;P1;durP2;ratioP2;P2;SDS_P1;SDS_P2;PMS_P1;PMS_P2;Temp;Humidity;BMP_temperature;BMP_pressure;BME280_temperature;BME280_humidity;BME280_pressure;Samples;Min_cycle;Max_cycle;Signal;HPM_P1;HPM_P2
2024/03/07 00:03:13;;;;;;;9.40;8.60;;;7.30;42.80;;;;;;10386528;28;20713;-71
2024/03/07 00:08:17;;;;;;;8.13;7.43;;;7.40;42.90;;;;;;10386070;28;20230;-71
2024/03/07 00:13:22;;;;;;;8.17;7.47;;;7.40;43.10;;;;;;10394282;28;20226;-71
2024/03/07 00:18:25;;;;;;;8.93;8.20;;;7.40;43.30;;;;;;10388937;28;20253;-71
2024/03/07 00:23:29;;;;;;;9.67;8.87;;;7.60;43.20;;;;;;10396063;28;20234;-71
2024/03/07 00:28:38;;;;;;;9.37;8.57;;;7.60;43.00;;;;;;10391259;28;20230;-71
2024/03/07 00:33:42;;;;;;;8.30;7.60;;;7.60;43.20;;;;;;10386420;28;20254;-71
2024/03/07 00:39:08;;;;;;;8.67;7.97;;;7.60;43.10;;;;;;10393282;28;20237;-71
2024/03/07 00:44:12;;;;;;;9.70;8.90;;;7.60;43.20;;;;;;10383646;28;20695;-71
2024/03/07 00:49:16;;;;;;;9.07;8.27;;;7.70;43.10;;;;;;10388796;28;20230;-71
2024/03/07 00:54:19;;;;;;;9.67;8.87;;;7.70;43.00;;;;;;10391841;28;20322;-71
2024/03/07 00:59:23;;;;;;;9.70;8.90;;;7.60;43.10;;;;;;10388629;28;20241;-71
2024/03/07 01:04:30;;;;;;;10.60;9.60;;;7.60;43.20;;;;;;10386962;28;20256;-71
2024/03/07 01:09:35;;;;;;;10.20;9.30;;;7.60;43.00;;;;;;10389357;28;20230;-71
2024/03/07 01:14:40;;;;;;;9.73;8.93;;;7.60;43.00;;;;;;10389784;28;20244;-71
2024/03/07 01:19:43;;;;;;;9.97;9.07;;;7.70;43.20;;;;;;10385901;28;20898;-71
2024/03/07 01:24:47;;;;;;;10.97;9.83;;;7.70;42.90;;;;;;10388770;28;20715;-71
2024/03/07 01:29:53;;;;;;;10.00;9.10;;;7.70;42.60;;;;;;10387549;28;20226;-71
2024/03/07 01:34:56;;;;;;;9.97;9.07;;;7.60;42.70;;;;;;10385457;28;20304;-71
2024/03/07 01:40:00;;;;;;;9.67;8.80;;;7.50;42.60;;;;;;10389007;28;20779;-71
2024/03/07 01:45:05;;;;;;;9.93;9.13;;;7.40;42.90;;;;;;10387988;28;20243;-71
2024/03/07 01:50:09;;;;;;;11.73;10.63;;;7.40;43.10;;;;;;10389067;28;20240;-71
2024/03/07 01:55:13;;;;;;;10.37;9.30;;;7.50;43.70;;;;;;10386498;28;20602;-71
2024/03/07 02:00:18;;;;;;;11.47;10.47;;;7.50;42.90;;;;;;10383210;28;20651;-71
2024/03/07 02:05:22;;;;;;;8.97;8.17;;;7.50;42.90;;;;;;10385676;28;20234;-71
2024/03/07 02:10:26;;;;;;;9.53;8.73;;;7.50;42.90;;;;;;10385221;28;20234;-71
2024/03/07 02:15:30;;;;;;;12.20;11.10;;;7.60;42.90;;;;;;10385872;28;20222;-71
2024/03/07 02:20:33;;;;;;;11.73;10.73;;;7.60;42.90;;;;;;10380800;28;20284;-71
2024/03/07 02:25:38;;;;;;;11.27;10.27;;;7.70;42.70;;;;;;10384571;28;20217;-71
2024/03/07 02:30:41;;;;;;;11.73;10.70;;;7.70;43.30;;;;;;10379149;28;20241;-71
2024/03/07 02:35:44;;;;;;;13.20;12.00;;;7.70;42.60;;;;;;10378231;28;20264;-71
2024/03/07 02:40:49;;;;;;;11.30;10.23;;;7.70;42.40;;;;;;10384401;28;20246;-71
2024/03/07 02:45:52;;;;;;;15.03;12.73;;;7.70;42.40;;;;;;10384803;28;20228;-71
2024/03/07 02:50:55;;;;;;;12.90;11.70;;;7.60;42.50;;;;;;10381759;28;21133;-71
2024/03/07 02:56:00;;;;;;;10.57;9.57;;;7.60;42.40;;;;;;10382879;28;20594;-71
2024/03/07 03:01:04;;;;;;;13.70;12.40;;;7.60;42.50;;;;;;10379668;28;20253;-70
2024/03/07 03:06:08;;;;;;;13.00;11.77;;;7.60;42.80;;;;;;10379842;28;20605;-70
2024/03/07 03:11:13;;;;;;;15.20;13.63;;;7.60;42.40;;;;;;10381123;28;20276;-71
2024/03/07 03:16:17;;;;;;;14.37;12.97;;;7.60;42.60;;;;;;10380779;28;20279;-71
2024/03/07 03:21:29;;;;;;;18.33;16.43;;;7.70;42.60;;;;;;10380879;28;20230;-71
2024/03/07 03:26:33;;;;;;;15.80;14.20;;;7.70;42.60;;;;;;10382450;28;20237;-71
2024/03/07 03:31:37;;;;;;;19.23;17.27;;;7.70;42.70;;;;;;10381738;28;20256;-71
2024/03/07 03:36:40;;;;;;;17.87;16.17;;;7.70;42.70;;;;;;10378582;28;20240;-71
2024/03/07 03:41:44;;;;;;;20.87;18.20;;;7.70;42.60;;;;;;10381328;28;20231;-71
2024/03/07 03:46:49;;;;;;;21.63;19.33;;;7.70;42.70;;;;;;10378563;28;20230;-71
2024/03/07 03:51:53;;;;;;;23.07;20.67;;;7.70;42.50;;;;;;10380998;28;20237;-71
2024/03/07 03:56:58;;;;;;;24.47;21.87;;;7.80;42.50;;;;;;10381183;28;21208;-71
2024/03/07 04:02:04;;;;;;;26.37;23.67;;;7.80;42.50;;;;;;10376821;28;20229;-70
2024/03/07 04:07:07;;;;;;;25.70;23.13;;;7.70;42.40;;;;;;10379623;28;20253;-71
2024/03/07 04:12:13;;;;;;;27.93;24.93;;;7.80;42.30;;;;;;10378300;28;20221;-71
2024/03/07 04:17:16;;;;;;;28.97;25.97;;;7.80;42.30;;;;;;10378565;28;20245;-71
2024/03/07 04:22:20;;;;;;;28.77;25.83;;;7.80;42.30;;;;;;10378733;28;20638;-71
2024/03/07 04:27:25;;;;;;;25.97;23.30;;;7.80;42.20;;;;;;10383498;28;20230;-71
2024/03/07 04:32:29;;;;;;;25.63;23.03;;;7.70;42.70;;;;;;10381665;28;20703;-71
2024/03/07 04:37:36;;;;;;;27.67;24.87;;;7.80;42.20;;;;;;10375482;28;20230;-71
2024/03/07 04:42:40;;;;;;;28.67;25.23;;;7.70;42.10;;;;;;10378923;28;20598;-71
2024/03/07 04:47:46;;;;;;;22.70;20.30;;;7.70;42.20;;;;;;10377782;28;20240;-71
2024/03/07 04:52:49;;;;;;;23.73;21.33;;;7.80;42.30;;;;;;10382415;28;20237;-71
2024/03/07 04:57:54;;;;;;;22.77;20.53;;;7.80;42.40;;;;;;10387362;28;20230;-71
2024/03/07 05:02:57;;;;;;;24.70;22.10;;;7.80;42.30;;;;;;10388171;28;20230;-71
2024/03/07 05:08:01;;;;;;;29.23;26.10;;;7.80;42.30;;;;;;10384223;28;20230;-71
2024/03/07 05:13:06;;;;;;;27.33;24.13;;;7.80;42.30;;;;;;10386749;28;20234;-71
2024/03/07 05:18:12;;;;;;;25.50;22.27;;;7.80;42.20;;;;;;10391141;28;20360;-71
2024/03/07 05:23:16;;;;;;;26.73;23.53;;;7.80;42.00;;;;;;10389032;28;20226;-71
2024/03/07 05:28:22;;;;;;;24.50;21.93;;;7.80;42.00;;;;;;10387037;28;20229;-71
2024/03/07 05:33:26;;;;;;;24.97;22.23;;;7.70;41.90;;;;;;10385523;28;20234;-71
2024/03/07 05:38:29;;;;;;;27.00;24.23;;;7.70;42.00;;;;;;10387276;28;20242;-71
2024/03/07 05:43:34;;;;;;;27.07;24.27;;;7.70;41.90;;;;;;10386893;28;20283;-70
2024/03/07 05:48:37;;;;;;;28.27;25.27;;;7.70;41.80;;;;;;10384347;28;20229;-71
2024/03/07 05:53:41;;;;;;;27.57;24.67;;;7.60;41.70;;;;;;10387635;28;20242;-71
2024/03/07 05:58:46;;;;;;;23.93;21.53;;;7.60;41.60;;;;;;10370558;28;20230;-71
2024/03/07 06:03:49;;;;;;;28.73;25.83;;;7.60;41.60;;;;;;10348146;28;20270;-71
2024/03/07 06:08:52;;;;;;;28.77;25.77;;;7.50;41.50;;;;;;10345329;28;20285;-71
2024/03/07 06:13:58;;;;;;;28.07;25.07;;;7.50;41.50;;;;;;10344090;28;20866;-70
2024/03/07 06:19:02;;;;;;;27.80;24.67;;;7.40;41.40;;;;;;10374997;28;20435;-70
2024/03/07 06:24:08;;;;;;;29.77;25.60;;;7.40;41.80;;;;;;10367204;28;20222;-71
2024/03/07 06:29:13;;;;;;;29.07;25.90;;;7.40;41.60;;;;;;10383078;28;20264;-71
2024/03/07 06:34:17;;;;;;;29.17;26.07;;;7.40;41.50;;;;;;10383188;28;20230;-71
2024/03/07 06:39:21;;;;;;;29.77;26.73;;;7.40;41.50;;;;;;10384937;28;20233;-71
2024/03/07 06:44:26;;;;;;;27.13;24.23;;;7.40;41.40;;;;;;10388722;28;20233;-71
2024/03/07 06:49:30;;;;;;;29.83;26.63;;;7.30;41.30;;;;;;10384052;28;20659;-71
2024/03/07 06:54:33;;;;;;;30.00;26.80;;;7.30;41.30;;;;;;10382083;28;20316;-71
2024/03/07 06:59:38;;;;;;;30.60;26.97;;;7.30;41.30;;;;;;10388256;28;20305;-71
2024/03/07 07:04:42;;;;;;;29.93;26.73;;;7.20;41.10;;;;;;10382989;28;20818;-71
2024/03/07 07:09:45;;;;;;;28.63;25.63;;;7.20;41.10;;;;;;10385426;28;20745;-71
2024/03/07 07:14:50;;;;;;;29.27;26.20;;;7.10;41.10;;;;;;10384021;28;20600;-71
2024/03/07 07:19:55;;;;;;;30.03;26.90;;;7.10;41.40;;;;;;10380986;28;20218;-71
2024/03/07 07:24:58;;;;;;;30.77;26.90;;;7.10;41.50;;;;;;10383272;28;20229;-71
2024/03/07 07:30:03;;;;;;;31.13;26.53;;;7.00;41.40;;;;;;10350077;28;21067;-71
2024/03/07 07:35:11;;;;;;;31.90;28.17;;;7.00;41.40;;;;;;10344220;28;20238;-71
2024/03/07 07:40:18;;;;;;;31.07;27.23;;;7.00;41.60;;;;;;10342627;28;20333;-71
2024/03/07 07:45:24;;;;;;;30.80;27.53;;;7.00;41.80;;;;;;10348477;28;20336;-71
2024/03/07 07:50:27;;;;;;;34.07;26.93;;;7.00;41.80;;;;;;10357841;28;20363;-71
2024/03/07 07:55:31;;;;;;;30.17;26.97;;;7.10;41.90;;;;;;10364546;28;20711;-71
2024/03/07 08:00:36;;;;;;;29.93;26.73;;;7.10;42.00;;;;;;10382015;28;20343;-71
2024/03/07 08:05:41;;;;;;;31.37;27.97;;;7.20;42.20;;;;;;10386486;28;20221;-71
2024/03/07 08:10:45;;;;;;;30.13;26.83;;;7.20;42.20;;;;;;10384434;28;20218;-71
2024/03/07 08:15:50;;;;;;;31.20;27.33;;;7.30;42.50;;;;;;10385918;28;20226;-71
2024/03/07 08:20:54;;;;;;;29.37;26.17;;;7.40;42.60;;;;;;10382868;28;20241;-71
2024/03/07 08:25:58;;;;;;;30.93;27.83;;;7.50;42.70;;;;;;10389909;28;20657;-71
2024/03/07 08:31:04;;;;;;;30.33;27.13;;;7.70;42.90;;;;;;10394468;28;21495;-71
2024/03/07 08:36:09;;;;;;;30.30;27.10;;;7.90;42.80;;;;;;10391245;28;20236;-71
2024/03/07 08:41:13;;;;;;;29.77;26.67;;;8.00;42.90;;;;;;10392684;28;20317;-71
2024/03/07 08:46:18;;;;;;;32.43;26.63;;;8.20;43.20;;;;;;10389386;28;20225;-71
2024/03/07 08:51:21;;;;;;;28.70;25.63;;;8.50;42.90;;;;;;10387842;28;20229;-71
2024/03/07 08:56:24;;;;;;;29.77;26.60;;;8.70;43.10;;;;;;10391118;28;20309;-71
2024/03/07 09:01:29;;;;;;;31.00;27.70;;;8.90;42.70;;;;;;10390806;28;20222;-71
2024/03/07 09:06:32;;;;;;;30.00;26.90;;;9.10;42.50;;;;;;10388805;28;20257;-71
2024/03/07 09:11:36;;;;;;;30.13;26.90;;;9.30;42.80;;;;;;10386545;28;20304;-71
2024/03/07 09:16:41;;;;;;;28.40;25.50;;;9.50;42.70;;;;;;10390429;28;20240;-71
2024/03/07 09:21:46;;;;;;;30.03;26.93;;;9.70;42.40;;;;;;10391346;28;20308;-71
2024/03/07 09:26:49;;;;;;;29.40;26.17;;;9.90;42.00;;;;;;10389321;28;20223;-71
2024/03/07 09:31:54;;;;;;;27.93;25.03;;;10.10;41.10;;;;;;10392335;28;20264;-71
2024/03/07 09:36:59;;;;;;;25.17;22.47;;;10.30;41.10;;;;;;10385359;28;20233;-71
2024/03/07 09:42:02;;;;;;;24.07;21.60;;;10.50;41.10;;;;;;10384031;28;20324;-70
2024/03/07 09:47:08;;;;;;;25.23;22.53;;;10.70;40.50;;;;;;10386235;28;20316;-71
2024/03/07 09:52:12;;;;;;;25.17;22.57;;;10.80;39.80;;;;;;10385023;28;20340;-72
2024/03/07 09:57:16;;;;;;;21.53;19.33;;;10.90;40.10;;;;;;10383189;28;20312;-72
2024/03/07 10:02:24;;;;;;;22.63;20.27;;;10.90;39.80;;;;;;10383559;28;20321;-72
2024/03/07 10:07:29;;;;;;;23.13;20.63;;;10.90;39.00;;;;;;10387222;28;20610;-72
2024/03/07 10:12:32;;;;;;;22.97;20.47;;;11.00;39.70;;;;;;10386101;28;20575;-72
2024/03/07 10:17:38;;;;;;;22.03;19.80;;;11.10;39.40;;;;;;10386695;28;20229;-71
2024/03/07 10:22:42;;;;;;;23.00;20.53;;;11.20;39.10;;;;;;10383164;28;20210;-72
2024/03/07 10:27:48;;;;;;;24.23;21.67;;;11.30;39.30;;;;;;10384770;28;20229;-72
2024/03/07 10:32:57;;;;;;;23.20;20.83;;;11.30;38.70;;;;;;10385462;28;20221;-72
2024/03/07 10:38:06;;;;;;;22.43;20.13;;;11.40;38.10;;;;;;10381145;28;20238;-71
2024/03/07 10:43:14;;;;;;;22.03;19.77;;;11.40;39.00;;;;;;10385906;28;20233;-72
2024/03/07 10:48:21;;;;;;;22.00;19.73;;;11.30;38.40;;;;;;10382639;28;20676;-72
2024/03/07 10:53:33;;;;;;;20.67;18.53;;;11.30;37.90;;;;;;10382764;28;20333;-72
2024/03/07 10:58:43;;;;;;;22.67;20.27;;;11.30;37.30;;;;;;10382714;28;20233;-72
2024/03/07 11:03:51;;;;;;;22.23;20.03;;;11.20;37.70;;;;;;10383176;28;20217;-72
2024/03/07 11:08:56;;;;;;;20.67;18.67;;;11.10;37.90;;;;;;10380133;28;20221;-72
2024/03/07 11:14:00;;;;;;;22.53;20.13;;;11.10;38.40;;;;;;10378044;28;20229;-73
2024/03/07 11:19:38;;;;;;;22.23;19.93;;;11.10;38.70;;;;;;10378939;28;20242;-72
2024/03/07 11:24:42;;;;;;;22.53;20.23;;;11.10;37.60;;;;;;10289985;28;20226;-73
2024/03/07 11:29:52;;;;;;;21.57;19.37;;;11.10;38.60;;;;;;10377784;28;20240;-73
2024/03/07 11:34:58;;;;;;;20.80;18.73;;;11.10;38.10;;;;;;10379064;28;20258;-73
2024/03/07 11:40:08;;;;;;;20.57;18.53;;;11.10;37.90;;;;;;10381014;28;20237;-72
2024/03/07 11:45:20;;;;;;;18.50;16.63;;;11.10;38.10;;;;;;10383108;28;20708;-72
2024/03/07 11:50:25;;;;;;;17.37;15.17;;;11.00;38.20;;;;;;10376508;28;20733;-72
2024/03/07 11:55:29;;;;;;;16.57;14.93;;;11.00;38.10;;;;;;10380167;28;20276;-72
2024/03/07 12:00:35;;;;;;;17.00;15.20;;;11.00;38.20;;;;;;10381595;28;20315;-72
2024/03/07 12:05:40;;;;;;;16.97;15.30;;;11.00;37.60;;;;;;10385361;28;20236;-72
2024/03/07 12:10:45;;;;;;;16.57;14.87;;;11.10;38.10;;;;;;10387571;28;20226;-72
2024/03/07 12:15:52;;;;;;;17.27;15.57;;;11.10;38.10;;;;;;10384380;28;20254;-73
2024/03/07 12:20:58;;;;;;;18.70;16.70;;;11.20;38.00;;;;;;10380969;28;20229;-72
2024/03/07 12:26:03;;;;;;;18.50;16.60;;;11.20;37.50;;;;;;10387540;28;20299;-72
2024/03/07 12:31:15;;;;;;;17.83;15.93;;;11.10;37.80;;;;;;10386759;28;20226;-72
2024/03/07 12:36:22;;;;;;;17.67;15.83;;;11.00;38.10;;;;;;10386555;28;20374;-72
2024/03/07 12:41:26;;;;;;;16.30;14.70;;;11.10;37.60;;;;;;10386732;28;20884;-72
2024/03/07 12:46:30;;;;;;;16.80;15.20;;;11.10;38.00;;;;;;10385300;28;20236;-72
2024/03/07 12:51:36;;;;;;;16.27;14.57;;;11.20;37.90;;;;;;10385823;28;20301;-73
2024/03/07 12:56:39;;;;;;;16.07;14.57;;;11.30;37.50;;;;;;10383378;28;20234;-72
2024/03/07 13:01:44;;;;;;;17.93;16.13;;;11.30;37.80;;;;;;10385658;28;20222;-72
2024/03/07 13:06:49;;;;;;;17.93;16.07;;;11.30;37.50;;;;;;10384177;28;20234;-72
2024/03/07 13:11:53;;;;;;;17.57;15.50;;;11.40;37.10;;;;;;10380732;28;20237;-73
2024/03/07 13:16:56;;;;;;;16.40;14.83;;;11.40;36.60;;;;;;10386436;28;20226;-73
2024/03/07 13:22:01;;;;;;;17.53;15.70;;;11.40;37.30;;;;;;10385183;28;20229;-73
2024/03/07 13:27:11;;;;;;;16.77;14.63;;;11.40;36.30;;;;;;10382259;28;20245;-72
2024/03/07 13:32:14;;;;;;;16.43;14.83;;;11.30;36.70;;;;;;10382482;28;20241;-72
2024/03/07 13:37:19;;;;;;;15.40;13.90;;;11.30;36.80;;;;;;10381038;28;20229;-73
2024/03/07 13:42:22;;;;;;;15.73;14.07;;;11.30;35.70;;;;;;10383807;28;20285;-72
2024/03/07 13:47:25;;;;;;;16.13;14.47;;;11.10;36.50;;;;;;10385800;28;20239;-72
2024/03/07 13:52:31;;;;;;;15.80;14.27;;;11.10;36.70;;;;;;10384067;28;20230;-72
2024/03/07 13:57:43;;;;;;;14.87;13.40;;;11.10;36.80;;;;;;10387750;28;20309;-72
2024/03/07 14:03:31;;;;;;;14.97;13.00;;;11.30;36.80;;;;;;10383682;28;20226;-72
2024/03/07 14:09:13;;;;;;;12.63;11.40;;;11.40;35.40;;;;;;10385775;28;20284;-72
2024/03/07 14:14:43;;;;;;;14.87;13.30;;;11.50;35.50;;;;;;10385137;28;20224;-73
2024/03/07 14:20:23;;;;;;;14.40;13.00;;;11.60;35.80;;;;;;10380699;28;20222;-72
2024/03/07 14:25:51;;;;;;;14.97;13.37;;;11.60;35.70;;;;;;10372659;28;20296;-72
2024/03/07 14:30:58;;;;;;;42.40;30.23;;;11.70;35.70;;;;;;10382582;28;20234;-73
2024/03/07 14:36:11;;;;;;;18.27;16.37;;;11.70;36.50;;;;;;10383128;28;20230;-73
2024/03/07 14:41:16;;;;;;;15.83;14.13;;;11.70;35.60;;;;;;10383901;28;20228;-72
2024/03/07 14:46:20;;;;;;;16.27;14.67;;;11.70;36.30;;;;;;10379737;28;20655;-72
2024/03/07 14:51:25;;;;;;;16.47;14.57;;;11.80;36.70;;;;;;10376494;28;20874;-72
2024/03/07 14:56:30;;;;;;;17.27;13.80;;;11.70;36.70;;;;;;10383317;28;20776;-73
2024/03/07 15:01:34;;;;;;;15.17;13.77;;;11.80;36.20;;;;;;10377828;28;20311;-73
2024/03/07 15:06:39;;;;;;;15.53;13.93;;;11.70;36.60;;;;;;10380480;28;20310;-72
2024/03/07 15:11:44;;;;;;;14.40;13.00;;;11.70;36.50;;;;;;10345103;28;20333;-72
2024/03/07 15:16:49;;;;;;;14.27;12.87;;;11.80;36.20;;;;;;10341925;28;20234;-72
2024/03/07 15:21:53;;;;;;;15.23;13.73;;;11.70;36.40;;;;;;10341987;28;20308;-73
2024/03/07 15:26:58;;;;;;;15.43;13.93;;;11.70;36.40;;;;;;10340616;28;20313;-72
2024/03/07 15:32:02;;;;;;;17.03;15.23;;;11.70;36.10;;;;;;10343189;28;20230;-72
2024/03/07 15:37:07;;;;;;;16.77;15.07;;;11.70;36.20;;;;;;10361943;28;20563;-73
2024/03/07 15:42:14;;;;;;;15.77;14.17;;;11.70;36.30;;;;;;10344229;28;20231;-72
2024/03/07 15:47:21;;;;;;;16.00;14.40;;;11.60;36.20;;;;;;10341358;28;20783;-72
2024/03/07 15:52:24;;;;;;;15.87;14.17;;;11.50;36.00;;;;;;10341496;28;20780;-72
2024/03/07 15:57:29;;;;;;;16.93;14.63;;;11.50;36.40;;;;;;10366343;28;20597;-72
2024/03/07 16:02:33;;;;;;;16.20;14.60;;;11.50;36.20;;;;;;10350910;28;20696;-72
2024/03/07 16:07:36;;;;;;;16.87;15.07;;;11.40;36.40;;;;;;10338217;28;20250;-73
2024/03/07 16:12:42;;;;;;;16.90;15.03;;;11.40;36.40;;;;;;10339006;28;20761;-72
2024/03/07 16:17:45;;;;;;;16.53;14.90;;;11.30;36.30;;;;;;10341032;28;20312;-72
2024/03/07 16:22:49;;;;;;;16.20;14.70;;;11.30;36.40;;;;;;10341482;28;20595;-72
2024/03/07 16:27:55;;;;;;;15.47;13.87;;;11.20;36.20;;;;;;10351833;28;20235;-72
2024/03/07 16:32:59;;;;;;;15.03;13.53;;;11.10;36.20;;;;;;10338969;28;20237;-72
2024/03/07 16:38:04;;;;;;;15.10;13.57;;;11.10;36.50;;;;;;10333016;28;20234;-72
2024/03/07 16:43:10;;;;;;;15.37;13.80;;;11.00;36.40;;;;;;10338826;28;20832;-72
2024/03/07 16:48:15;;;;;;;15.07;13.50;;;11.00;36.10;;;;;;10339488;28;20234;-72
2024/03/07 16:53:19;;;;;;;15.53;13.90;;;11.00;36.50;;;;;;10343217;28;20218;-72
2024/03/07 16:58:24;;;;;;;15.23;13.63;;;10.90;36.50;;;;;;10339886;28;20231;-72
2024/03/07 17:03:27;;;;;;;16.60;13.60;;;10.90;36.30;;;;;;10342600;28;20227;-72
2024/03/07 17:08:33;;;;;;;15.03;13.43;;;10.80;36.60;;;;;;10341159;28;20222;-72
2024/03/07 17:13:40;;;;;;;14.50;13.10;;;10.80;36.70;;;;;;10343025;28;20219;-72
2024/03/07 17:18:44;;;;;;;15.13;13.50;;;10.80;36.60;;;;;;10339780;28;20231;-72
2024/03/07 17:23:47;;;;;;;14.40;13.00;;;10.80;36.80;;;;;;10339173;28;20229;-72
2024/03/07 17:28:52;;;;;;;14.60;13.00;;;10.70;36.60;;;;;;10335396;28;20242;-72
2024/03/07 17:33:56;;;;;;;14.60;13.17;;;10.70;36.40;;;;;;10343735;28;20219;-72
2024/03/07 17:39:00;;;;;;;14.27;12.87;;;10.60;36.40;;;;;;10344759;28;20310;-72
2024/03/07 17:44:15;;;;;;;13.57;12.17;;;10.60;36.30;;;;;;10347608;28;20233;-72
2024/03/07 17:49:21;;;;;;;15.10;13.00;;;10.60;36.30;;;;;;10345683;28;20340;-72
2024/03/07 17:54:30;;;;;;;15.03;12.30;;;10.50;36.50;;;;;;10345095;28;20601;-72
2024/03/07 17:59:35;;;;;;;13.47;12.17;;;10.50;36.50;;;;;;10341977;28;20231;-72
2024/03/07 18:04:38;;;;;;;14.17;12.83;;;10.50;36.50;;;;;;10344107;28;20227;-72
2024/03/07 18:09:42;;;;;;;13.50;12.10;;;10.50;36.60;;;;;;10338147;28;20225;-72
2024/03/07 18:14:50;;;;;;;16.03;12.83;;;10.40;36.50;;;;;;10348518;28;20249;-72
2024/03/07 18:20:15;;;;;;;14.40;12.90;;;10.40;36.40;;;;;;10339067;28;20654;-72
2024/03/07 18:25:22;;;;;;;14.80;12.87;;;10.40;36.60;;;;;;10340407;28;20232;-72
2024/03/07 18:30:29;;;;;;;13.87;12.47;;;10.30;36.40;;;;;;10341710;28;20241;-72
2024/03/07 18:35:33;;;;;;;14.30;12.83;;;10.30;36.30;;;;;;10337409;28;20317;-72
2024/03/07 18:40:38;;;;;;;13.23;11.93;;;10.30;36.50;;;;;;10342528;28;20304;-72
2024/03/07 18:45:43;;;;;;;14.07;12.67;;;10.30;36.50;;;;;;10341321;28;20230;-72
2024/03/07 18:50:48;;;;;;;14.23;12.83;;;10.20;36.40;;;;;;10339489;28;20236;-72
2024/03/07 18:55:53;;;;;;;13.30;11.97;;;10.20;36.50;;;;;;10339284;28;20280;-72
2024/03/07 19:00:57;;;;;;;14.47;12.67;;;10.20;36.50;;;;;;10336754;28;20631;-72
2024/03/07 19:06:01;;;;;;;14.07;12.57;;;10.20;36.50;;;;;;10341558;28;20704;-72
2024/03/07 19:11:04;;;;;;;14.60;13.10;;;10.20;36.80;;;;;;10340278;28;20241;-72
2024/03/07 19:16:09;;;;;;;14.50;13.00;;;10.10;36.60;;;;;;10335552;28;20227;-72
2024/03/07 19:21:13;;;;;;;14.40;12.90;;;10.10;36.60;;;;;;10340465;28;20245;-72
2024/03/07 19:26:19;;;;;;;13.50;12.10;;;10.10;36.70;;;;;;10339104;28;20254;-72
2024/03/07 19:31:25;;;;;;;12.40;11.30;;;10.00;36.50;;;;;;10335571;28;20596;-72
2024/03/07 19:36:28;;;;;;;13.40;12.03;;;10.00;36.40;;;;;;10336348;28;20934;-72
2024/03/07 19:41:31;;;;;;;13.30;12.00;;;10.00;36.50;;;;;;10332235;28;20223;-72
2024/03/07 19:46:36;;;;;;;13.90;12.47;;;10.00;36.60;;;;;;10334931;28;20266;-72
2024/03/07 19:51:39;;;;;;;12.67;11.37;;;9.90;37.30;;;;;;10337312;28;20309;-72
2024/03/07 19:56:43;;;;;;;13.20;11.83;;;9.90;37.40;;;;;;10334878;28;20737;-72
2024/03/07 20:01:48;;;;;;;12.80;11.47;;;9.80;37.40;;;;;;10335932;28;20226;-72
2024/03/07 20:06:52;;;;;;;12.17;11.07;;;9.80;37.30;;;;;;10334221;28;20254;-72
2024/03/07 20:11:55;;;;;;;13.50;11.93;;;9.80;37.40;;;;;;10340900;28;20241;-72
2024/03/07 20:16:59;;;;;;;12.87;11.57;;;9.70;37.30;;;;;;10336079;28;20234;-72
2024/03/07 20:22:03;;;;;;;12.87;11.43;;;9.70;37.20;;;;;;10340575;28;20329;-71
2024/03/07 20:27:06;;;;;;;12.07;10.90;;;9.60;37.20;;;;;;10346163;28;20731;-72
2024/03/07 20:32:11;;;;;;;12.43;11.23;;;9.60;37.30;;;;;;10345087;28;20594;-72
2024/03/07 20:37:14;;;;;;;12.80;11.57;;;9.50;37.10;;;;;;10345200;28;20231;-72
2024/03/07 20:42:18;;;;;;;11.50;10.40;;;9.40;37.20;;;;;;10343264;28;21143;-72
2024/03/07 20:47:23;;;;;;;12.87;11.57;;;9.40;37.30;;;;;;10339697;28;20312;-72
2024/03/07 20:52:28;;;;;;;12.27;11.03;;;9.30;37.10;;;;;;10339855;28;20233;-72
2024/03/07 20:57:32;;;;;;;12.27;10.90;;;9.30;37.30;;;;;;10341490;28;20258;-72
2024/03/07 21:02:36;;;;;;;12.33;10.73;;;9.20;37.20;;;;;;10343321;28;20314;-72
2024/03/07 21:07:41;;;;;;;11.57;10.37;;;9.20;37.20;;;;;;10340505;28;20227;-72
2024/03/07 21:12:44;;;;;;;12.73;11.43;;;9.20;37.30;;;;;;10344383;28;20791;-72
2024/03/07 21:17:49;;;;;;;12.90;11.60;;;9.10;37.30;;;;;;10341518;28;20231;-72
2024/03/07 21:22:54;;;;;;;12.23;11.03;;;9.00;37.20;;;;;;10342509;28;20246;-72
2024/03/07 21:27:57;;;;;;;13.10;11.67;;;9.00;37.30;;;;;;10340157;28;20314;-72
2024/03/07 21:33:04;;;;;;;12.13;10.93;;;8.90;37.20;;;;;;10333895;28;20232;-72
2024/03/07 21:38:08;;;;;;;12.70;11.47;;;8.90;37.30;;;;;;10338465;28;20230;-72
2024/03/07 21:43:12;;;;;;;12.50;11.27;;;8.80;37.30;;;;;;10339274;28;20237;-72
2024/03/07 21:48:21;;;;;;;13.00;11.70;;;8.70;37.20;;;;;;10341081;28;20295;-72
2024/03/07 21:53:24;;;;;;;12.20;10.97;;;8.70;37.20;;;;;;10341610;28;20253;-72
2024/03/07 21:58:27;;;;;;;13.40;12.00;;;8.70;37.30;;;;;;10341888;28;20583;-72
2024/03/07 22:03:33;;;;;;;13.70;12.23;;;8.60;37.20;;;;;;10339246;28;20305;-72
2024/03/07 22:08:36;;;;;;;12.30;11.00;;;8.60;37.20;;;;;;10344795;28;20235;-72
2024/03/07 22:13:40;;;;;;;13.37;11.97;;;8.50;37.30;;;;;;10341309;28;20237;-72
2024/03/07 22:18:46;;;;;;;13.27;11.87;;;8.50;37.30;;;;;;10338086;28;20235;-72
2024/03/07 22:23:50;;;;;;;13.20;11.93;;;8.40;37.20;;;;;;10341944;28;20222;-72
2024/03/07 22:28:54;;;;;;;13.00;11.70;;;8.40;37.20;;;;;;10341184;28;20768;-72
2024/03/07 22:33:58;;;;;;;12.20;10.90;;;8.40;37.20;;;;;;10341082;28;20726;-72
2024/03/07 22:39:08;;;;;;;11.97;10.77;;;8.30;37.10;;;;;;10354584;28;20235;-72
2024/03/07 22:44:13;;;;;;;11.73;10.53;;;8.30;37.20;;;;;;10344318;28;20337;-71
2024/03/07 22:49:19;;;;;;;13.33;11.70;;;8.20;37.20;;;;;;10346633;28;20234;-71
2024/03/07 22:54:23;;;;;;;14.37;11.90;;;8.20;37.10;;;;;;10345176;28;20245;-71
2024/03/07 22:59:27;;;;;;;12.73;11.03;;;8.10;37.10;;;;;;10339221;28;20235;-72
2024/03/07 23:04:32;;;;;;;11.77;10.60;;;8.00;37.20;;;;;;10343334;28;20227;-72
2024/03/07 23:09:35;;;;;;;13.03;11.63;;;7.90;37.20;;;;;;10347131;28;20235;-71
2024/03/07 23:14:38;;;;;;;12.00;10.80;;;7.90;37.30;;;;;;10344260;28;20901;-71
2024/03/07 23:19:44;;;;;;;12.30;11.10;;;7.80;37.20;;;;;;10348414;28;20230;-71
2024/03/07 23:24:48;;;;;;;12.83;11.43;;;7.70;37.30;;;;;;10339619;28;20620;-71
2024/03/07 23:29:51;;;;;;;12.50;11.20;;;7.70;37.40;;;;;;10349658;28;20628;-71
2024/03/07 23:34:57;;;;;;;14.07;12.27;;;7.70;37.50;;;;;;10342181;28;20222;-72
2024/03/07 23:40:01;;;;;;;12.80;11.50;;;7.60;37.40;;;;;;10344657;28;20301;-72
2024/03/07 23:45:05;;;;;;;13.43;12.10;;;7.60;37.50;;;;;;10363467;28;20313;-72
2024/03/07 23:50:11;;;;;;;14.07;12.03;;;7.50;37.60;;;;;;10335092;28;20362;-71
2024/03/07 23:55:16;;;;;;;13.77;11.60;;;7.50;37.80;;;;;;10347915;28;20230;-71
